Impacts METAR Board
IDs:

KMSP - Minneapolis-St Paul, MN, US

Updated at: 0900 UTC 19 Jul 2018
Potential Impact None Slight Moderate High
Time 18/21Z 18/22Z 18/23Z 19/00Z 19/01Z 19/02Z 19/03Z 19/04Z 19/05Z 19/06Z 19/07Z 19/08Z 19/09Z
Temp80 80 81 79 78 76 75 73 73 71 70 69 68
Dewpt58 60 60 60 61 62 60 61 60 60 61 61 62
Altim30.03 30.02 30.00 29.99 29.97 29.97 29.98 29.97 29.96 29.95 29.93 29.92 29.90
VIS10 10 10 10 10 10 10 10 10 10 10 10 10
CIG250 250 250 250 250 250 250 250 250 -- -- -- --
CoverOVCBKNBKNBKNBKNBKNBKNBKNBKNSCTFEWFEWFEW
FltCatVFRVFRVFRVFRVFRVFRVFRVFRVFRVFRVFRVFRVFR
WX--------------------------
WDir120140140140120130130140140140140140150
WSpd5 7 7 9 11 8 8 8 7 8 7 7 6
WGst-- -- 16 -- -- -- -- -- -- -- -- -- --
Raw hourly METARs
KMSP 182053Z 12005KT 10SM FEW060 OVC250 27/14 A3003 RMK AO2 SLP166 T02670144 58014
KMSP 182153Z 14007KT 10SM FEW060 BKN250 27/16 A3002 RMK AO2 SLP161 T02670156
KMSP 182253Z 14007G16KT 110V180 10SM FEW060 BKN250 27/16 A3000 RMK AO2 SLP153 T02720156
KMSP 182353Z 14009KT 10SM FEW060 BKN250 26/16 A2999 RMK AO2 SLP150 T02610156 10278 20261 56015
KMSP 190053Z 12011KT 10SM FEW100 BKN250 26/16 A2997 RMK AO2 SLP146 T02560161
KMSP 190153Z 13008KT 10SM FEW100 BKN250 24/17 A2997 RMK AO2 SLP144 T02440167
KMSP 190253Z 13008KT 10SM FEW100 BKN250 24/16 A2998 RMK AO2 SLP146 T02390156 55003
KMSP 190353Z 14008KT 10SM FEW100 BKN250 23/16 A2997 RMK AO2 SLP144 T02280161
KMSP 190453Z 14007KT 10SM BKN250 23/16 A2996 RMK AO2 SLP139 T02280156
KMSP 190553Z 14008KT 10SM FEW047 SCT250 22/16 A2995 RMK AO2 SLP136 T02170156 10267 20217 402780178 58009
KMSP 190653Z 14007KT 10SM FEW047 FEW250 21/16 A2993 RMK AO2 SLP131 T02110161
KMSP 190753Z 14007KT 10SM FEW250 21/16 A2992 RMK AO2 SLP128 T02060161
KMSP 190853Z 15006KT 10SM FEW250 20/17 A2990 RMK AO2 SLP122 T02000167 58014



Page loaded:  09:31 UTC  |   02:31 AM Pacific  |   03:31 AM Mountain  |   04:31 AM Central  |   05:31 AM Eastern

 

ADVISORIES

FORECASTS

FORECASTS

OBSERVATIONS

USER TOOLS

ABOUT US